< Typhoon 196906 1969 Season Typhoon 196908 >
Typhoon 196907 (ALICE)
General InformationTrack Information on Google Maps || NewsDisaster Info.ResourceGoogle EarthGE AnimationAtom FeedGeoJSON
Detalied Best Track (Time Zone = UTC)
Year Month Day Hour Lat. Long. Pressure (hPa) Wind (kt) Class Image Chart
1969 8 1 00 22.0 140.0 1002 0 2 -- Chart
1969 8 1 06 22.1 139.0 1002 0 2 -- Chart
1969 8 1 12 22.3 138.8 1000 0 2 -- Chart
1969 8 1 18 22.6 138.6 1000 0 2 -- Chart
1969 8 2 00 22.8 138.8 994 0 2 -- Chart
1969 8 2 06 24.0 137.7 992 0 2 -- Chart
1969 8 2 12 25.5 136.7 990 0 9 -- Chart
1969 8 2 18 26.7 135.8 990 0 9 -- Chart
1969 8 3 00 27.3 135.5 985 0 9 -- Chart
1969 8 3 06 28.2 135.1 985 0 9 -- Chart
1969 8 3 12 29.4 134.6 985 0 9 -- Chart
1969 8 3 18 30.4 134.4 985 0 9 -- Chart
1969 8 4 00 31.5 134.6 985 0 9 -- Chart
1969 8 4 06 32.6 134.8 985 0 9 -- Chart
1969 8 4 12 33.8 135.9 985 0 9 -- Chart
1969 8 4 18 35.4 137.4 995 0 9 -- Chart
1969 8 5 00 36.9 139.9 1000 0 2 -- Chart
1969 8 5 06 38.5 142.6 1000 0 6 -- Chart
1969 8 5 12 40.0 146.0 1002 0 6 -- Chart
1969 8 5 18 40.5 149.6 1002 0 6 -- Chart
1969 8 6 00 40.7 153.8 998 0 6 -- Chart
1969 8 6 06 41.0 157.5 996 0 6 -- Chart
1969 8 6 12 41.1 159.6 996 0 6 -- Chart
1969 8 6 18 41.2 161.7 996 0 6 -- Chart
1969 8 7 00 41.3 164.0 998 0 6 -- Chart
1969 8 7 06 41.3 166.3 998 0 6 -- Chart
Japan Meteorological Agency Best Track Data | Correction Date : 1989-06-01
< Typhoon 196906 1969 Season Typhoon 196908 >

Help